Terminal Aerodrome Forecast
Issued by NWS

Home | Current Version | Previous Version | Text Only | Print | Product List | Glossary On
Versions: 1 2 3 4 5 6 7 8 9 10 11 12
176
FTUS45 KTFX 301130
TAFGTF
TAF
KGTF 301130Z 3012/0112 24012KT P6SM VCSH SCT050 OVC080
      TEMPO 3012/3016 -SHRA BKN035
     FM301700 24020G28KT P6SM -SHRA BKN035 OVC050
     FM010100 26015G25KT P6SM SCT050 BKN090
     FM010900 26010KT P6SM BKN060 PROB30 0109/0112 4SM -SHRA OVC040=

USA.gov is the U.S. government's official web portal to all federal, state and local government web resources and services.